createdAt,value
2023-03-06T00:00:54.755Z,21.70
2023-03-06T00:03:26.032Z,22.75
2023-03-06T00:05:55.415Z,19.38
2023-03-06T00:08:23.128Z,28.05
2023-03-06T00:10:50.872Z,27.42
2023-03-06T00:13:19.897Z,32.15
2023-03-06T00:15:48.229Z,25.25
2023-03-06T00:18:16.217Z,28.73
2023-03-06T00:20:46.168Z,27.70
2023-03-06T00:23:14.022Z,28.40
2023-03-06T00:25:43.450Z,29.15
2023-03-06T00:28:12.179Z,31.05
2023-03-06T00:30:40.101Z,40.83
2023-03-06T00:33:08.258Z,40.85
2023-03-06T00:35:35.920Z,37.50
2023-03-06T00:38:06.418Z,41.97
2023-03-06T00:40:34.020Z,31.10
2023-03-06T00:43:01.640Z,32.95
2023-03-06T00:45:29.226Z,35.78
2023-03-06T00:47:56.822Z,30.77
2023-03-06T00:50:25.386Z,31.48
2023-03-06T00:52:53.222Z,29.60
2023-03-06T00:55:22.674Z,30.55
2023-03-06T00:57:50.291Z,32.63
2023-03-06T01:00:18.755Z,26.42
2023-03-06T01:02:46.384Z,32.15
2023-03-06T01:05:14.985Z,34.58
2023-03-06T01:07:42.942Z,39.00
2023-03-06T01:10:12.275Z,35.58
2023-03-06T01:12:41.243Z,30.33
2023-03-06T01:15:09.786Z,36.65
2023-03-06T01:17:37.411Z,36.65
2023-03-06T01:20:06.628Z,35.30
2023-03-06T01:22:34.351Z,33.65
2023-03-06T01:25:01.937Z,30.48
2023-03-06T01:27:29.570Z,27.27
2023-03-06T01:29:58.735Z,30.20
2023-03-06T01:32:26.472Z,29.77
2023-03-06T01:34:54.818Z,24.70
2023-03-06T01:37:22.488Z,24.90
2023-03-06T01:39:50.118Z,27.55
2023-03-06T01:42:17.782Z,23.10
2023-03-06T01:45:05.686Z,28.63
2023-03-06T01:47:35.799Z,20.13
2023-03-06T01:50:04.737Z,25.20
2023-03-06T01:52:37.067Z,23.13
2023-03-06T01:55:09.465Z,22.73
2023-03-06T01:57:41.696Z,23.85
2023-03-06T02:00:13.138Z,23.67
2023-03-06T02:02:48.423Z,22.30
2023-03-06T02:05:16.048Z,27.35
2023-03-06T02:07:45.550Z,31.80
2023-03-06T02:10:15.243Z,27.58
2023-03-06T02:12:44.568Z,32.28
2023-03-06T02:15:16.080Z,31.38
2023-03-06T02:17:44.601Z,30.05
2023-03-06T02:20:21.609Z,30.92
2023-03-06T02:22:56.067Z,31.42
2023-03-06T02:25:34.535Z,37.28
2023-03-06T02:28:02.922Z,29.17
2023-03-06T02:30:31.409Z,30.15
2023-03-06T02:32:59.630Z,38.70
2023-03-06T02:35:30.090Z,30.52
2023-03-06T02:37:59.853Z,30.92
2023-03-06T02:40:27.576Z,33.55
2023-03-06T02:42:58.294Z,39.13
2023-03-06T02:45:33.239Z,35.10
2023-03-06T02:48:00.944Z,36.88
2023-03-06T02:50:29.921Z,38.72
2023-03-06T02:52:57.563Z,33.00
2023-03-06T02:55:25.784Z,36.83
2023-03-06T02:57:56.702Z,42.70
2023-03-06T03:00:25.268Z,39.50
2023-03-06T03:02:53.444Z,43.30
2023-03-06T03:05:21.267Z,39.85
2023-03-06T03:07:55.970Z,46.70
2023-03-06T03:10:24.412Z,43.85
2023-03-06T03:12:52.257Z,44.92
2023-03-06T03:15:21.950Z,41.80
2023-03-06T03:17:49.569Z,49.80
2023-03-06T03:20:19.921Z,46.08
2023-03-06T03:22:49.682Z,45.47
2023-03-06T03:25:17.483Z,50.72
2023-03-06T03:27:45.515Z,45.00
2023-03-06T03:30:14.555Z,51.22
2023-03-06T03:32:43.710Z,47.45
2023-03-06T03:35:12.440Z,56.58
2023-03-06T03:37:41.226Z,51.05
2023-03-06T03:40:10.951Z,49.95
2023-03-06T03:42:39.023Z,47.78
2023-03-06T03:45:08.510Z,51.75
2023-03-06T03:47:36.280Z,51.08
2023-03-06T03:50:06.473Z,49.05
2023-03-06T03:52:34.213Z,51.30
2023-03-06T03:55:01.926Z,49.83
2023-03-06T03:57:30.118Z,43.15
2023-03-06T03:59:58.831Z,44.38
2023-03-06T04:02:41.372Z,42.80
2023-03-06T04:05:22.135Z,42.10
2023-03-06T04:07:50.069Z,39.63
2023-03-06T04:10:17.704Z,37.35
2023-03-06T04:12:45.412Z,32.75
2023-03-06T04:15:13.359Z,30.10
2023-03-06T04:17:41.485Z,28.63
2023-03-06T04:20:14.417Z,27.50
2023-03-06T04:22:43.906Z,30.42
2023-03-06T04:25:12.636Z,29.05
2023-03-06T04:27:40.839Z,28.65
2023-03-06T04:30:09.944Z,27.83
2023-03-06T04:32:37.795Z,25.67
2023-03-06T04:35:06.919Z,24.65
2023-03-06T04:37:40.347Z,27.25
2023-03-06T04:40:17.960Z,30.55
2023-03-06T04:42:45.708Z,25.38
2023-03-06T04:45:13.337Z,31.45
2023-03-06T04:47:41.209Z,31.85
2023-03-06T04:50:10.379Z,34.78
2023-03-06T04:52:38.058Z,36.92
2023-03-06T04:55:08.614Z,36.95
2023-03-06T04:57:37.649Z,31.17
2023-03-06T05:00:08.837Z,29.33
2023-03-06T05:02:37.221Z,27.95
2023-03-06T05:05:06.053Z,29.55
2023-03-06T05:07:33.795Z,33.58
2023-03-06T05:10:01.469Z,33.85
2023-03-06T05:12:29.131Z,36.88
2023-03-06T05:14:58.860Z,31.58
2023-03-06T05:17:26.464Z,41.40
2023-03-06T05:19:54.328Z,34.15
2023-03-06T05:22:22.059Z,37.03
2023-03-06T05:24:49.663Z,45.47
2023-03-06T05:27:17.274Z,47.28
2023-03-06T05:29:44.945Z,44.42
2023-03-06T05:32:14.143Z,37.92
2023-03-06T05:34:41.881Z,41.67
2023-03-06T05:37:09.717Z,40.15
2023-03-06T05:39:37.407Z,36.65
2023-03-06T05:42:05.228Z,43.58
2023-03-06T05:44:33.341Z,42.22
2023-03-06T05:47:01.005Z,40.45
2023-03-06T05:49:33.054Z,43.45
2023-03-06T05:52:00.749Z,43.58
2023-03-06T05:54:28.364Z,45.28
2023-03-06T05:56:57.243Z,40.90
2023-03-06T05:59:27.992Z,38.22
2023-03-06T06:01:56.082Z,39.33
2023-03-06T06:04:24.926Z,32.38
2023-03-06T06:06:54.841Z,39.72
2023-03-06T06:09:23.323Z,36.17
2023-03-06T06:11:52.685Z,35.92
2023-03-06T06:14:20.629Z,33.63
2023-03-06T06:16:48.446Z,40.97
2023-03-06T06:19:18.712Z,49.83
2023-03-06T06:21:47.929Z,38.63
2023-03-06T06:24:18.939Z,47.10
2023-03-06T06:26:47.162Z,37.30
2023-03-06T06:29:14.829Z,40.00
2023-03-06T06:31:42.734Z,40.47
2023-03-06T06:34:12.472Z,38.67
2023-03-06T06:36:40.524Z,41.75
2023-03-06T06:39:09.066Z,34.28
2023-03-06T06:42:09.729Z,42.58
2023-03-06T06:44:25.725Z,43.78
2023-03-06T06:49:41.090Z,37.70
2023-03-06T06:52:08.719Z,46.80
2023-03-06T06:54:36.436Z,49.35
2023-03-06T06:57:05.739Z,41.63
2023-03-06T06:59:33.428Z,40.05
2023-03-06T07:02:02.342Z,48.88
2023-03-06T07:04:29.994Z,46.60
2023-03-06T07:06:57.853Z,41.63
2023-03-06T07:09:26.448Z,42.15
2023-03-06T07:11:54.297Z,39.63
2023-03-06T07:14:23.287Z,41.92
2023-03-06T07:16:50.991Z,38.30
2023-03-06T07:19:18.596Z,34.95
2023-03-06T07:21:46.255Z,39.33
2023-03-06T07:24:14.004Z,40.58
2023-03-06T07:26:41.692Z,38.00
2023-03-06T07:29:09.414Z,39.50
2023-03-06T07:31:38.592Z,37.95
2023-03-06T07:34:06.404Z,41.72
2023-03-06T07:36:34.571Z,39.00
2023-03-06T07:39:02.339Z,42.63
2023-03-06T07:41:30.039Z,43.25
2023-03-06T07:43:57.680Z,47.17
2023-03-06T07:46:25.391Z,46.50
2023-03-06T07:48:54.481Z,41.90
2023-03-06T07:51:23.442Z,43.83
2023-03-06T07:53:51.587Z,43.78
2023-03-06T07:56:19.377Z,52.47
2023-03-06T07:58:48.362Z,49.08
2023-03-06T08:01:17.988Z,43.35
2023-03-06T08:03:45.817Z,42.15
2023-03-06T08:06:17.512Z,41.83
2023-03-06T08:08:46.723Z,40.33
2023-03-06T08:11:16.400Z,40.30
2023-03-06T08:13:44.407Z,46.28
2023-03-06T08:16:12.473Z,39.65
2023-03-06T08:18:40.492Z,38.10
2023-03-06T08:21:10.987Z,39.47
2023-03-06T08:23:41.094Z,34.40
2023-03-06T08:26:12.522Z,37.70
2023-03-06T08:28:40.176Z,35.45
2023-03-06T08:31:13.118Z,32.65
2023-03-06T08:33:42.034Z,36.53
2023-03-06T08:36:10.342Z,31.13
2023-03-06T08:38:38.003Z,33.58
2023-03-06T08:41:07.494Z,37.25
2023-03-06T08:43:35.982Z,37.00
2023-03-06T08:46:04.170Z,34.70
2023-03-06T08:48:31.805Z,31.20
2023-03-06T08:50:59.467Z,32.28
2023-03-06T08:53:41.790Z,27.13
2023-03-06T08:56:18.125Z,33.10
2023-03-06T08:58:45.816Z,31.10
2023-03-06T09:01:15.123Z,30.02
2023-03-06T09:03:42.906Z,53.22
2023-03-06T09:06:10.608Z,32.35
2023-03-06T09:08:38.340Z,34.22
2023-03-06T09:11:06.192Z,42.03
2023-03-06T09:13:35.252Z,37.00
2023-03-06T09:16:02.889Z,37.47
2023-03-06T09:18:30.599Z,41.20
2023-03-06T09:20:58.236Z,42.95
2023-03-06T09:23:25.922Z,44.22
2023-03-06T09:25:54.321Z,42.15
2023-03-06T09:28:22.143Z,41.10
2023-03-06T09:30:51.370Z,40.92
2023-03-06T09:33:19.530Z,46.53
2023-03-06T09:35:50.899Z,42.45
2023-03-06T09:38:19.168Z,43.70
2023-03-06T09:41:01.044Z,46.90
2023-03-06T09:43:32.763Z,44.97
2023-03-06T09:46:02.744Z,45.20
2023-03-06T09:48:40.723Z,50.92
2023-03-06T09:51:16.068Z,50.95
2023-03-06T09:53:56.498Z,55.42
2023-03-06T09:56:31.001Z,48.08
2023-03-06T09:59:06.071Z,46.70
2023-03-06T10:01:41.845Z,53.83
2023-03-06T10:04:18.921Z,59.00
2023-03-06T10:06:49.361Z,50.80
2023-03-06T10:09:20.760Z,47.75
2023-03-06T10:11:53.867Z,58.08
2023-03-06T10:14:30.238Z,50.05
2023-03-06T10:16:59.530Z,54.28
2023-03-06T10:19:33.844Z,54.67
2023-03-06T10:22:05.232Z,44.95
2023-03-06T10:24:47.740Z,48.40
2023-03-06T10:27:23.520Z,41.83
2023-03-06T10:30:03.169Z,55.72
2023-03-06T10:32:48.377Z,48.35
2023-03-06T10:35:20.372Z,54.90
2023-03-06T10:37:48.961Z,53.80
2023-03-06T10:40:20.346Z,46.75
2023-03-06T10:42:50.661Z,48.85
2023-03-06T10:45:21.859Z,55.13
2023-03-06T10:47:50.835Z,50.65
2023-03-06T10:50:26.481Z,46.38
2023-03-06T10:53:05.618Z,47.15
2023-03-06T10:55:35.113Z,41.63
2023-03-06T10:58:18.381Z,40.58
2023-03-06T11:00:46.541Z,38.00
2023-03-06T11:03:22.559Z,36.72
2023-03-06T11:06:01.136Z,36.83
2023-03-06T11:08:29.823Z,33.72
2023-03-06T11:11:00.806Z,31.85
2023-03-06T11:13:31.066Z,39.97
2023-03-06T11:16:02.744Z,26.85
2023-03-06T11:18:36.243Z,29.52
2023-03-06T11:21:07.191Z,30.80
2023-03-06T11:23:42.026Z,30.40
2023-03-06T11:26:28.637Z,30.85
2023-03-06T11:29:03.735Z,26.58
2023-03-06T11:31:34.889Z,27.77
2023-03-06T11:34:10.030Z,21.13
2023-03-06T11:36:42.442Z,22.10
2023-03-06T11:39:22.168Z,26.58
2023-03-06T11:41:57.915Z,23.48
2023-03-06T11:44:36.793Z,23.85
2023-03-06T11:47:13.776Z,18.58
2023-03-06T11:49:46.526Z,13.90
2023-03-06T11:52:23.102Z,14.82
2023-03-06T11:54:55.073Z,16.55
2023-03-06T11:57:25.891Z,14.82
2023-03-06T12:00:16.207Z,14.90
2023-03-06T12:03:03.046Z,21.13
2023-03-06T12:05:43.281Z,14.55
2023-03-06T12:08:43.943Z,15.95
2023-03-06T12:11:19.945Z,15.95
2023-03-06T12:14:23.081Z,20.45
2023-03-06T12:17:11.405Z,19.98
2023-03-06T12:19:59.067Z,17.60
2023-03-06T12:22:57.418Z,15.98
2023-03-06T12:25:35.566Z,21.17
2023-03-06T12:28:19.128Z,16.00
2023-03-06T12:31:04.968Z,18.77
2023-03-06T12:33:40.778Z,19.33
2023-03-06T12:36:25.356Z,13.75
2023-03-06T12:39:10.700Z,22.17
2023-03-06T12:41:46.339Z,15.27
2023-03-06T12:44:43.460Z,15.13
2023-03-06T12:47:15.687Z,14.30
2023-03-06T12:49:47.556Z,16.27
2023-03-06T12:52:29.570Z,16.95
2023-03-06T12:55:00.866Z,17.50
2023-03-06T12:57:28.658Z,11.95
2023-03-06T12:59:56.341Z,15.25
2023-03-06T13:02:55.825Z,15.80
2023-03-06T13:05:47.902Z,12.32
2023-03-06T13:08:34.111Z,13.70
2023-03-06T13:11:27.806Z,16.08
2023-03-06T13:13:55.948Z,16.02
2023-03-06T13:16:29.122Z,13.38
2023-03-06T13:19:05.132Z,9.60
2023-03-06T13:22:09.335Z,11.60
2023-03-06T13:24:38.142Z,11.27
2023-03-06T13:27:09.660Z,10.53
2023-03-06T13:30:06.141Z,13.27
2023-03-06T13:32:36.738Z,11.20
2023-03-06T13:35:46.010Z,9.15
2023-03-06T13:38:32.241Z,11.75
2023-03-06T13:41:27.699Z,10.05
2023-03-06T13:43:58.460Z,11.57
2023-03-06T13:46:29.947Z,11.77
2023-03-06T13:49:06.463Z,9.73
2023-03-06T13:51:36.523Z,12.85
2023-03-06T13:54:29.976Z,10.02
2023-03-06T13:57:13.552Z,18.45
2023-03-06T14:00:11.778Z,8.90
2023-03-06T14:02:56.054Z,9.93
2023-03-06T14:05:24.215Z,8.13
2023-03-06T14:08:06.342Z,8.90
2023-03-06T14:10:36.318Z,9.15
2023-03-06T14:13:06.491Z,10.38
2023-03-06T14:15:44.483Z,6.68
2023-03-06T14:18:19.164Z,10.98
2023-03-06T14:20:51.234Z,9.32
2023-03-06T14:23:35.233Z,11.57
2023-03-06T14:26:09.439Z,19.98
2023-03-06T14:28:37.552Z,11.18
2023-03-06T14:31:07.133Z,13.10
2023-03-06T14:33:42.807Z,15.05
2023-03-06T14:36:15.704Z,13.00
2023-03-06T14:38:49.995Z,13.38
2023-03-06T14:41:26.631Z,17.17
2023-03-06T14:44:08.769Z,16.70
2023-03-06T14:46:37.850Z,17.00
2023-03-06T14:49:08.303Z,18.15
2023-03-06T14:51:40.259Z,16.38
2023-03-06T14:54:08.180Z,23.08
2023-03-06T14:56:42.877Z,20.10
2023-03-06T14:59:16.324Z,19.55
2023-03-06T15:01:49.270Z,20.70
2023-03-06T15:04:26.423Z,17.90
2023-03-06T15:06:56.187Z,17.73
2023-03-06T15:09:27.166Z,17.00
2023-03-06T15:12:01.000Z,17.60
2023-03-06T15:14:34.776Z,17.27
2023-03-06T15:17:29.627Z,24.13
2023-03-06T15:19:59.005Z,18.27
2023-03-06T15:22:30.733Z,19.60
2023-03-06T15:25:21.714Z,22.15
2023-03-06T15:27:52.163Z,21.58
2023-03-06T15:30:27.726Z,19.35
2023-03-06T15:33:20.521Z,19.88
2023-03-06T15:35:54.876Z,21.90
2023-03-06T15:38:26.978Z,23.58
2023-03-06T15:40:56.816Z,24.60
2023-03-06T15:43:24.449Z,22.55
2023-03-06T15:45:55.562Z,25.85
2023-03-06T15:48:24.550Z,28.77
2023-03-06T15:50:52.212Z,24.17
2023-03-06T15:53:20.303Z,22.52
2023-03-06T15:55:48.610Z,22.30
2023-03-06T15:58:20.306Z,18.20
2023-03-06T16:00:48.160Z,20.42
2023-03-06T16:03:15.872Z,19.67
2023-03-06T16:05:44.868Z,18.83
2023-03-06T16:08:14.788Z,19.00
2023-03-06T16:10:44.954Z,20.75
2023-03-06T16:13:17.078Z,21.08
2023-03-06T16:15:47.955Z,22.10
2023-03-06T16:18:15.727Z,18.67
2023-03-06T16:20:44.841Z,17.98
2023-03-06T16:23:12.494Z,21.73
2023-03-06T16:25:41.551Z,20.02
2023-03-06T16:28:12.825Z,21.85
2023-03-06T16:30:41.784Z,21.13
2023-03-06T16:33:11.338Z,23.88
2023-03-06T16:35:39.734Z,22.13
2023-03-06T16:38:09.569Z,26.00
2023-03-06T16:40:41.153Z,24.20
2023-03-06T16:43:10.396Z,20.98
2023-03-06T16:45:40.675Z,25.67
2023-03-06T16:48:08.966Z,24.73
2023-03-06T16:50:39.294Z,26.48
2023-03-06T16:53:08.944Z,27.90
2023-03-06T16:55:36.737Z,26.95
2023-03-06T16:58:05.013Z,23.52
2023-03-06T17:00:33.312Z,31.65
2023-03-06T17:03:02.586Z,28.35
2023-03-06T17:05:33.004Z,30.23
2023-03-06T17:08:00.665Z,30.85
2023-03-06T17:10:29.915Z,30.45
2023-03-06T17:12:58.062Z,29.30
2023-03-06T17:15:25.846Z,31.40
2023-03-06T17:17:53.485Z,34.10
2023-03-06T17:20:21.712Z,29.42
2023-03-06T17:22:49.444Z,29.35
2023-03-06T17:25:17.114Z,29.55
2023-03-06T17:27:46.125Z,29.35
2023-03-06T17:30:15.707Z,26.77
2023-03-06T17:32:43.477Z,25.63
2023-03-06T17:35:11.354Z,24.27
2023-03-06T17:37:39.128Z,28.15
2023-03-06T17:40:09.782Z,31.73
2023-03-06T17:42:37.561Z,27.15
2023-03-06T17:45:09.285Z,29.83
2023-03-06T17:47:36.940Z,32.03
2023-03-06T17:50:04.987Z,27.48
2023-03-06T17:52:33.340Z,25.00
2023-03-06T17:55:00.945Z,27.55
2023-03-06T17:57:28.477Z,25.30
2023-03-06T17:59:56.315Z,24.35
2023-03-06T18:02:25.283Z,31.27
2023-03-06T18:04:53.298Z,23.70
2023-03-06T18:07:20.978Z,28.95
2023-03-06T18:09:48.837Z,26.60
2023-03-06T18:12:16.707Z,30.10
2023-03-06T18:14:44.438Z,27.75
2023-03-06T18:17:12.084Z,32.80
2023-03-06T18:19:41.261Z,26.73
2023-03-06T18:22:08.937Z,35.22
2023-03-06T18:24:37.383Z,29.33
2023-03-06T18:27:05.041Z,34.30
2023-03-06T18:29:32.685Z,32.22
2023-03-06T18:32:00.423Z,31.55
2023-03-06T18:34:28.308Z,30.33
2023-03-06T18:36:57.342Z,33.45
2023-03-06T18:39:25.063Z,34.95
2023-03-06T18:41:53.325Z,28.85
2023-03-06T18:44:21.034Z,29.88
2023-03-06T18:46:48.738Z,29.55
2023-03-06T18:49:16.447Z,29.60
2023-03-06T18:51:44.119Z,33.40
2023-03-06T18:54:13.134Z,28.80
2023-03-06T18:56:44.038Z,28.85
2023-03-06T18:59:14.361Z,35.17
2023-03-06T19:01:44.203Z,27.75
2023-03-06T19:04:12.238Z,31.35
2023-03-06T19:06:40.748Z,32.65
2023-03-06T19:09:09.206Z,30.88
2023-03-06T19:11:38.254Z,33.15
2023-03-06T19:14:06.057Z,34.67
2023-03-06T19:16:34.943Z,31.40
2023-03-06T19:19:02.701Z,34.63
2023-03-06T19:21:30.619Z,32.15
2023-03-06T19:23:58.876Z,30.35
2023-03-06T19:26:27.939Z,31.10
2023-03-06T19:28:56.954Z,28.60
2023-03-06T19:31:27.092Z,34.50
2023-03-06T19:33:56.575Z,28.48
2023-03-06T19:36:27.591Z,31.13
2023-03-06T19:38:56.080Z,27.25
2023-03-06T19:41:23.902Z,31.45
2023-03-06T19:43:54.240Z,29.60
2023-03-06T19:46:24.353Z,27.98
2023-03-06T19:48:55.928Z,24.30
2023-03-06T19:51:23.716Z,29.85
2023-03-06T19:53:51.464Z,26.23
2023-03-06T19:56:21.063Z,24.00
2023-03-06T19:58:49.036Z,27.10
2023-03-06T20:01:18.216Z,28.20
2023-03-06T20:03:47.523Z,31.98
2023-03-06T20:06:17.375Z,29.77
2023-03-06T20:08:46.444Z,30.30
2023-03-06T20:11:18.907Z,35.95
2023-03-06T20:13:47.739Z,32.28
2023-03-06T20:16:15.691Z,32.30
2023-03-06T20:18:43.914Z,34.30
2023-03-06T20:21:13.189Z,34.03
2023-03-06T20:23:41.309Z,29.85
2023-03-06T20:26:11.777Z,35.90
2023-03-06T20:28:40.693Z,28.60
2023-03-06T20:31:08.910Z,29.08
2023-03-06T20:33:36.885Z,27.55
2023-03-06T20:36:05.363Z,26.42
2023-03-06T20:38:34.350Z,28.63
2023-03-06T20:41:01.961Z,28.50
2023-03-06T20:43:29.599Z,27.42
2023-03-06T20:45:58.752Z,30.70
2023-03-06T20:48:26.442Z,25.10
2023-03-06T20:51:02.198Z,28.70
2023-03-06T20:53:30.178Z,23.40
2023-03-06T20:55:59.474Z,31.70
2023-03-06T20:58:30.000Z,25.65
2023-03-06T21:00:58.168Z,27.48
2023-03-06T21:03:26.070Z,26.55
2023-03-06T21:05:53.687Z,29.35
2023-03-06T21:08:21.420Z,28.75
2023-03-06T21:10:49.184Z,30.25
2023-03-06T21:13:18.522Z,32.33
2023-03-06T21:15:47.466Z,27.67
2023-03-06T21:18:15.455Z,36.95
2023-03-06T21:20:43.325Z,36.60
2023-03-06T21:23:10.988Z,36.22
2023-03-06T21:25:38.598Z,33.15
2023-03-06T21:28:06.200Z,36.03
2023-03-06T21:30:35.343Z,34.13
2023-03-06T21:33:03.793Z,34.53
2023-03-06T21:35:31.442Z,36.40
2023-03-06T21:37:59.092Z,36.53
2023-03-06T21:40:26.746Z,31.85
2023-03-06T21:42:54.370Z,30.00
2023-03-06T21:45:21.956Z,34.05
2023-03-06T21:47:51.196Z,31.88
2023-03-06T21:50:19.023Z,31.05
2023-03-06T21:52:46.628Z,37.20
2023-03-06T21:55:14.308Z,37.80
2023-03-06T21:57:41.947Z,35.40
2023-03-06T22:00:12.542Z,36.80
2023-03-06T22:02:40.191Z,40.00
2023-03-06T22:05:09.871Z,38.97
2023-03-06T22:07:38.240Z,43.22
2023-03-06T22:10:07.306Z,45.03
2023-03-06T22:12:35.209Z,49.35
2023-03-06T22:15:03.522Z,42.15
2023-03-06T22:17:31.481Z,38.28
2023-03-06T22:19:59.309Z,48.00
2023-03-06T22:22:28.369Z,45.17
2023-03-06T22:24:56.047Z,42.22
2023-03-06T22:27:23.723Z,51.15
2023-03-06T22:29:52.583Z,50.28
2023-03-06T22:32:20.662Z,43.60
2023-03-06T22:34:48.381Z,48.58
2023-03-06T22:37:16.058Z,48.20
2023-03-06T22:39:45.033Z,48.38
2023-03-06T22:42:12.617Z,47.20
2023-03-06T22:44:40.421Z,52.10
2023-03-06T22:47:08.170Z,37.08
2023-03-06T22:49:35.849Z,46.75
2023-03-06T22:52:03.607Z,42.95
2023-03-06T22:54:31.228Z,47.65
2023-03-06T22:57:00.199Z,45.72
2023-03-06T22:59:27.838Z,42.28
2023-03-06T23:01:55.478Z,50.65
2023-03-06T23:04:23.168Z,48.15
2023-03-06T23:06:50.811Z,60.05
2023-03-06T23:09:20.649Z,59.85
2023-03-06T23:12:09.095Z,53.95
2023-03-06T23:14:55.459Z,64.70
2023-03-06T23:17:41.453Z,59.15
2023-03-06T23:20:27.737Z,50.92
2023-03-06T23:23:13.865Z,54.53
2023-03-06T23:25:41.516Z,54.15
2023-03-06T23:28:10.526Z,57.05
2023-03-06T23:30:39.037Z,55.88
2023-03-06T23:33:06.669Z,51.38
2023-03-06T23:35:34.582Z,58.25
2023-03-06T23:38:03.227Z,50.50
2023-03-06T23:40:32.545Z,56.00
2023-03-06T23:43:00.386Z,45.33
2023-03-06T23:45:29.410Z,49.35
2023-03-06T23:47:57.309Z,55.85
2023-03-06T23:50:26.016Z,46.67
2023-03-06T23:52:54.346Z,56.03
2023-03-06T23:55:22.937Z,50.80
2023-03-06T23:57:50.551Z,39.25
